Time;durP1;ratioP1;P1;durP2;ratioP2;P2;SDS_P1;SDS_P2;PMS_P1;PMS_P2;Temp;Humidity;BMP_temperature;BMP_pressure;BME280_temperature;BME280_humidity;BME280_pressure;Samples;Min_cycle;Max_cycle;Signal;HPM_P1;HPM_P2
2022/03/29 00:00:10;;;;;;;19.52;13.23;;;12.80;57.00;;;;;;5038404;28;20046;-48
2022/03/29 00:02:40;;;;;;;17.27;12.63;;;12.80;57.10;;;;;;5050596;28;20040;-49
2022/03/29 00:05:12;;;;;;;17.45;11.88;;;12.70;56.90;;;;;;5052131;28;20112;-51
2022/03/29 00:07:39;;;;;;;16.15;11.48;;;12.70;57.00;;;;;;5047283;28;20042;-50
2022/03/29 00:10:08;;;;;;;22.40;13.30;;;12.70;57.00;;;;;;5036020;28;20048;-52
2022/03/29 00:12:36;;;;;;;19.33;13.18;;;12.60;57.00;;;;;;5043930;28;20041;-49
2022/03/29 00:15:08;;;;;;;16.25;12.15;;;12.60;57.10;;;;;;5050303;28;20083;-52
2022/03/29 00:17:35;;;;;;;16.30;11.32;;;12.60;57.40;;;;;;5031180;28;20046;-52
2022/03/29 00:20:03;;;;;;;18.05;12.07;;;12.50;57.10;;;;;;5035487;28;20071;-52
2022/03/29 00:22:29;;;;;;;20.67;12.70;;;12.50;57.30;;;;;;5050417;28;20431;-51
2022/03/29 00:24:56;;;;;;;19.20;12.15;;;12.50;57.40;;;;;;5051014;28;20466;-49
2022/03/29 00:27:24;;;;;;;20.33;12.30;;;12.40;57.50;;;;;;5045213;28;20068;-52
2022/03/29 00:29:51;;;;;;;18.50;12.05;;;12.40;57.60;;;;;;5042462;28;20041;-51
2022/03/29 00:32:19;;;;;;;19.35;12.93;;;12.40;57.70;;;;;;5051233;28;20072;-52
2022/03/29 00:34:49;;;;;;;18.60;12.13;;;12.40;57.80;;;;;;5051540;28;20068;-52
2022/03/29 00:37:16;;;;;;;19.30;12.45;;;12.40;58.10;;;;;;5043926;28;20072;-52
2022/03/29 00:39:45;;;;;;;19.42;11.68;;;12.40;57.90;;;;;;5038219;28;20063;-52
2022/03/29 00:42:17;;;;;;;19.60;12.43;;;12.30;58.00;;;;;;5051010;28;20037;-51
2022/03/29 00:44:44;;;;;;;20.27;11.48;;;12.30;58.10;;;;;;5051601;28;20044;-51
2022/03/29 00:47:10;;;;;;;19.23;11.98;;;12.30;58.20;;;;;;5038307;28;20061;-52
2022/03/29 00:49:38;;;;;;;17.92;12.88;;;12.30;58.20;;;;;;5047623;28;20033;-50
2022/03/29 00:52:06;;;;;;;18.17;12.35;;;12.30;58.30;;;;;;5050638;28;20075;-50
2022/03/29 00:54:38;;;;;;;21.10;13.32;;;12.30;58.40;;;;;;5045074;28;20092;-48
2022/03/29 00:57:08;;;;;;;18.98;12.70;;;12.30;58.60;;;;;;5028406;28;20096;-52
2022/03/29 00:59:35;;;;;;;17.58;12.40;;;12.30;58.60;;;;;;5036023;28;20448;-52
2022/03/29 01:02:02;;;;;;;18.48;11.98;;;12.30;58.70;;;;;;5050749;28;20049;-52
2022/03/29 01:04:29;;;;;;;16.67;11.63;;;12.30;58.70;;;;;;5032288;28;20425;-48
2022/03/29 01:07:00;;;;;;;20.73;13.40;;;12.20;58.70;;;;;;5030034;28;20045;-48
2022/03/29 01:09:29;;;;;;;20.15;12.90;;;12.30;59.00;;;;;;5048100;28;20052;-52
2022/03/29 01:11:58;;;;;;;19.52;12.40;;;12.30;58.90;;;;;;5045103;28;20091;-52
2022/03/29 01:14:29;;;;;;;21.42;13.75;;;12.30;59.20;;;;;;5038185;28;20750;-52
2022/03/29 01:19:50;;;;;;;18.98;13.25;;;12.30;59.20;;;;;;5050680;28;20037;-51
2022/03/29 01:22:19;;;;;;;17.52;11.10;;;12.30;59.30;;;;;;5050419;28;20041;-50
2022/03/29 01:24:51;;;;;;;22.92;13.27;;;12.30;59.10;;;;;;5032301;28;20036;-51
2022/03/29 01:27:20;;;;;;;18.92;13.05;;;12.30;59.50;;;;;;5042197;28;20041;-48
2022/03/29 01:29:49;;;;;;;22.80;13.15;;;12.20;59.20;;;;;;5050950;28;20102;-48
2022/03/29 01:32:16;;;;;;;18.52;11.60;;;12.20;59.40;;;;;;5049635;28;20068;-52
2022/03/29 01:34:43;;;;;;;17.38;11.85;;;12.30;59.30;;;;;;5034411;28;20048;-47
2022/03/29 01:37:10;;;;;;;21.05;12.55;;;12.30;59.30;;;;;;5045742;28;20521;-51
2022/03/29 01:39:38;;;;;;;18.13;12.60;;;12.20;59.90;;;;;;5050154;28;20033;-52
2022/03/29 01:42:05;;;;;;;20.80;13.00;;;12.20;59.40;;;;;;5045894;28;20086;-51
2022/03/29 01:44:34;;;;;;;18.23;12.98;;;12.20;59.30;;;;;;5032071;28;20122;-52
2022/03/29 01:47:01;;;;;;;17.42;11.57;;;12.20;59.30;;;;;;5049245;28;20564;-52
2022/03/29 01:49:28;;;;;;;18.30;11.43;;;12.20;59.20;;;;;;5050316;28;20048;-48
2022/03/29 01:51:56;;;;;;;19.13;12.60;;;12.20;59.20;;;;;;5036665;28;20144;-48
2022/03/29 01:54:23;;;;;;;17.85;12.55;;;12.20;59.30;;;;;;5048890;28;20497;-52
2022/03/29 01:56:53;;;;;;;20.65;11.07;;;12.10;59.10;;;;;;5049343;28;20077;-52
2022/03/29 01:59:22;;;;;;;19.55;11.63;;;12.10;59.20;;;;;;5031146;28;20128;-48
2022/03/29 02:01:52;;;;;;;16.63;11.20;;;12.00;59.10;;;;;;5028513;28;20087;-51
2022/03/29 02:04:22;;;;;;;16.08;12.02;;;12.10;59.00;;;;;;5044209;28;20045;-48
2022/03/29 02:06:48;;;;;;;17.17;11.32;;;12.00;58.70;;;;;;5049361;28;20041;-52
2022/03/29 02:09:15;;;;;;;19.15;12.55;;;12.00;58.90;;;;;;5030294;28;20099;-52
2022/03/29 02:11:42;;;;;;;14.95;10.15;;;12.00;58.90;;;;;;5025866;28;20092;-51
2022/03/29 02:14:11;;;;;;;18.98;11.85;;;11.90;58.90;;;;;;5031236;28;20590;-51
2022/03/29 02:16:38;;;;;;;20.08;12.20;;;11.90;58.90;;;;;;5046716;28;20041;-48
2022/03/29 02:19:05;;;;;;;17.60;12.48;;;11.90;59.10;;;;;;5050197;28;20116;-51
2022/03/29 02:21:36;;;;;;;17.10;11.50;;;11.80;59.00;;;;;;5031287;28;20040;-50
2022/03/29 02:24:03;;;;;;;21.80;11.88;;;11.80;59.00;;;;;;5045192;28;20786;-49
2022/03/29 02:26:30;;;;;;;16.52;11.63;;;11.70;59.00;;;;;;5048702;28;20091;-46
2022/03/29 02:28:56;;;;;;;19.05;11.38;;;11.70;59.80;;;;;;5050286;28;20049;-52
2022/03/29 02:31:23;;;;;;;16.65;11.25;;;11.70;59.20;;;;;;5028860;28;20045;-48
2022/03/29 02:33:50;;;;;;;18.65;12.45;;;11.70;59.20;;;;;;5044199;28;20524;-50
2022/03/29 02:36:18;;;;;;;20.90;11.55;;;11.70;59.40;;;;;;5049030;28;20123;-52
2022/03/29 02:38:44;;;;;;;16.15;11.05;;;11.60;59.30;;;;;;5030645;28;20080;-48
2022/03/29 02:41:14;;;;;;;18.25;11.32;;;11.60;59.40;;;;;;5038510;28;20579;-50
2022/03/29 02:43:40;;;;;;;19.00;11.20;;;11.60;59.50;;;;;;5049470;28;20057;-50
2022/03/29 02:46:10;;;;;;;17.95;11.93;;;11.50;60.10;;;;;;5052363;28;20045;-47
2022/03/29 02:48:37;;;;;;;17.10;11.07;;;11.50;59.50;;;;;;5047034;28;20083;-52
2022/03/29 02:51:04;;;;;;;16.85;10.52;;;11.50;59.60;;;;;;5046364;28;20091;-52
2022/03/29 02:53:30;;;;;;;17.85;10.55;;;11.50;59.70;;;;;;5052713;28;20033;-51
2022/03/29 02:55:57;;;;;;;15.85;10.43;;;11.50;59.80;;;;;;5043985;28;20033;-52
2022/03/29 02:58:24;;;;;;;14.98;10.77;;;11.50;59.90;;;;;;5035404;28;20126;-52
2022/03/29 03:00:51;;;;;;;16.33;11.10;;;11.50;59.90;;;;;;5051232;28;20098;-52
2022/03/29 03:03:19;;;;;;;20.80;12.27;;;11.40;59.90;;;;;;5053297;28;20040;-50
2022/03/29 03:05:46;;;;;;;17.48;11.02;;;11.50;60.10;;;;;;5052397;28;20037;-50
2022/03/29 03:08:13;;;;;;;16.00;11.38;;;11.50;60.10;;;;;;5032477;28;20081;-52
2022/03/29 03:10:42;;;;;;;18.17;10.85;;;11.40;60.20;;;;;;5050162;28;20053;-52
2022/03/29 03:13:09;;;;;;;19.15;12.35;;;11.40;60.30;;;;;;5031797;28;20050;-51
2022/03/29 03:15:36;;;;;;;19.73;12.95;;;11.50;60.90;;;;;;5045457;28;20175;-52
2022/03/29 03:18:03;;;;;;;20.90;12.77;;;11.50;60.80;;;;;;5039807;28;20081;-52
2022/03/29 03:20:30;;;;;;;21.88;12.80;;;11.50;60.90;;;;;;5052672;28;20028;-51
2022/03/29 03:23:02;;;;;;;19.95;13.65;;;11.50;61.00;;;;;;5052602;28;20048;-52
2022/03/29 03:25:30;;;;;;;19.88;12.52;;;11.50;61.20;;;;;;5040931;28;20108;-52
2022/03/29 03:28:00;;;;;;;17.55;12.35;;;11.50;61.20;;;;;;5043472;28;20500;-47
2022/03/29 03:30:30;;;;;;;18.50;13.18;;;11.60;61.30;;;;;;5052714;28;20053;-49
2022/03/29 03:32:56;;;;;;;21.02;13.63;;;11.60;61.60;;;;;;5048459;28;20416;-51
2022/03/29 03:35:23;;;;;;;21.50;13.98;;;11.60;61.30;;;;;;5027079;28;20120;-52
2022/03/29 03:37:52;;;;;;;22.80;14.23;;;11.60;61.40;;;;;;5040902;28;20033;-47
2022/03/29 03:40:19;;;;;;;22.40;15.38;;;11.70;61.70;;;;;;5053045;28;20045;-50
2022/03/29 03:42:46;;;;;;;24.70;15.93;;;11.70;61.50;;;;;;5052272;28;20041;-52
2022/03/29 03:45:13;;;;;;;22.33;15.68;;;11.70;61.50;;;;;;5045252;22;20049;-90
2022/03/29 03:47:40;;;;;;;24.38;16.48;;;11.60;61.60;;;;;;5016500;28;20172;-91
2022/03/29 03:50:08;;;;;;;23.90;14.90;;;11.90;61.80;;;;;;5034568;28;20056;-90
2022/03/29 03:52:35;;;;;;;22.42;16.08;;;11.80;61.60;;;;;;5030838;28;20610;-89
2022/03/29 03:55:03;;;;;;;23.90;17.00;;;11.80;61.60;;;;;;5046341;28;20041;-90
2022/03/29 03:57:29;;;;;;;20.80;15.60;;;11.80;61.50;;;;;;5049711;28;20038;-90
2022/03/29 03:59:56;;;;;;;21.63;15.20;;;11.90;61.60;;;;;;5033953;28;20038;-89
2022/03/29 04:02:24;;;;;;;28.52;16.27;;;12.10;61.60;;;;;;5045223;28;20110;-90
2022/03/29 04:04:51;;;;;;;21.52;15.85;;;12.10;61.60;;;;;;5010909;28;20112;-90
2022/03/29 04:07:18;;;;;;;23.13;16.23;;;11.80;61.30;;;;;;5044801;28;20041;-91
2022/03/29 04:09:45;;;;;;;22.80;14.57;;;12.10;61.30;;;;;;5013569;28;20038;-90
2022/03/29 04:12:12;;;;;;;26.27;15.73;;;12.00;61.20;;;;;;5018799;28;20149;-90
2022/03/29 04:14:39;;;;;;;21.90;15.48;;;12.00;61.20;;;;;;5050511;28;20132;-90
2022/03/29 04:17:09;;;;;;;20.67;13.93;;;11.90;61.20;;;;;;5015550;28;20033;-90
2022/03/29 04:19:36;;;;;;;24.27;15.52;;;12.00;61.00;;;;;;5030956;28;20073;-90
2022/03/29 04:22:03;;;;;;;23.25;15.70;;;11.80;60.90;;;;;;5027012;28;20492;-91
2022/03/29 04:24:30;;;;;;;22.92;15.27;;;11.80;60.70;;;;;;5027644;28;20102;-91
2022/03/29 04:26:58;;;;;;;21.23;14.10;;;11.80;60.80;;;;;;4993746;28;20045;-91
2022/03/29 04:29:25;;;;;;;22.42;15.13;;;11.80;60.60;;;;;;5027022;28;20137;-90
2022/03/29 04:31:53;;;;;;;21.20;15.40;;;11.90;60.70;;;;;;5013044;28;20077;-91
2022/03/29 04:34:20;;;;;;;24.55;15.75;;;11.70;60.40;;;;;;5029847;28;20072;-91
2022/03/29 04:36:47;;;;;;;23.63;15.55;;;11.70;60.40;;;;;;5012896;28;20048;-91
2022/03/29 04:39:14;;;;;;;26.45;15.65;;;11.80;60.60;;;;;;5012852;28;20406;-92
2022/03/29 04:41:40;;;;;;;23.25;15.57;;;11.60;60.30;;;;;;5030016;28;20069;-90
2022/03/29 04:44:27;;;;;;;21.92;15.35;;;11.50;60.40;;;;;;5024325;28;20722;-89
2022/03/29 04:46:54;;;;;;;23.10;16.40;;;11.50;60.40;;;;;;5019297;28;20037;-90
2022/03/29 04:49:21;;;;;;;28.13;16.55;;;11.40;60.40;;;;;;5010162;28;20046;-90
2022/03/29 04:51:48;;;;;;;22.50;16.48;;;11.30;60.50;;;;;;5028759;28;20042;-90
2022/03/29 04:54:16;;;;;;;27.42;18.08;;;11.40;60.60;;;;;;4997361;28;20050;-92
2022/03/29 04:56:43;;;;;;;29.08;18.25;;;11.40;60.80;;;;;;5010627;28;20084;-95
2022/03/29 04:59:11;;;;;;;22.80;16.75;;;11.40;61.00;;;;;;5012978;28;20139;-90
2022/03/29 05:01:39;;;;;;;28.45;17.10;;;11.10;60.90;;;;;;5013716;28;20048;-90
2022/03/29 05:04:09;;;;;;;24.73;16.80;;;11.30;61.00;;;;;;5012905;28;20042;-91
2022/03/29 05:06:36;;;;;;;23.75;16.67;;;11.30;61.00;;;;;;5028991;28;20042;-92
2022/03/29 05:09:03;;;;;;;25.60;16.30;;;11.00;61.10;;;;;;5024786;28;20143;-90
2022/03/29 05:11:30;;;;;;;24.75;17.27;;;11.20;61.10;;;;;;5028688;28;20054;-91
2022/03/29 05:13:57;;;;;;;23.83;16.38;;;11.20;61.30;;;;;;5027257;28;20136;-93
2022/03/29 05:16:27;;;;;;;25.25;17.00;;;11.00;61.40;;;;;;5030323;28;20136;-91
2022/03/29 05:18:54;;;;;;;23.75;17.35;;;11.20;61.60;;;;;;5013754;28;20061;-93
2022/03/29 05:21:21;;;;;;;27.75;18.17;;;11.00;61.60;;;;;;5029205;28;20113;-93
2022/03/29 05:23:48;;;;;;;30.70;18.85;;;10.90;61.80;;;;;;5036697;28;20048;-95
2022/03/29 05:26:15;;;;;;;28.63;19.27;;;11.00;62.10;;;;;;5017474;28;20042;-91
2022/03/29 05:28:42;;;;;;;30.65;19.88;;;11.00;62.30;;;;;;5021306;28;20042;-93
2022/03/29 05:31:09;;;;;;;27.73;19.33;;;11.00;62.30;;;;;;5019358;28;20054;-90
2022/03/29 05:33:36;;;;;;;28.00;19.42;;;10.90;62.30;;;;;;5043915;28;20107;-92
2022/03/29 05:36:03;;;;;;;30.27;20.27;;;11.00;62.40;;;;;;5029081;28;20557;-93
2022/03/29 05:38:30;;;;;;;28.15;18.70;;;11.00;62.50;;;;;;5010341;28;20034;-93
2022/03/29 05:40:57;;;;;;;29.10;18.58;;;11.20;62.60;;;;;;5028986;28;20041;-93
2022/03/29 05:43:25;;;;;;;27.23;18.88;;;11.20;62.70;;;;;;5012500;28;20046;-90
2022/03/29 05:48:52;;;;;;;28.42;20.55;;;11.20;62.60;;;;;;5037236;28;20563;-92
2022/03/29 05:51:20;;;;;;;30.15;18.25;;;11.00;62.50;;;;;;4996032;28;20049;-90
2022/03/29 05:53:47;;;;;;;28.60;19.25;;;11.20;62.70;;;;;;5029298;28;20061;-93
2022/03/29 05:56:14;;;;;;;26.20;18.17;;;11.10;62.70;;;;;;5012063;28;20077;-91
2022/03/29 05:58:42;;;;;;;23.85;17.83;;;11.20;62.60;;;;;;5027904;28;20049;-92
2022/03/29 06:01:09;;;;;;;26.60;18.48;;;11.20;62.60;;;;;;5026911;28;20073;-92
2022/03/29 06:03:36;;;;;;;29.38;18.90;;;11.20;62.70;;;;;;5013976;28;20046;-91
2022/03/29 06:06:04;;;;;;;27.52;19.02;;;11.30;62.70;;;;;;5044096;28;20144;-91
2022/03/29 06:08:35;;;;;;;31.75;20.83;;;11.10;62.80;;;;;;5045189;28;20042;-91
2022/03/29 06:11:04;;;;;;;28.85;18.48;;;11.10;62.80;;;;;;5023986;28;20046;-89
2022/03/29 06:13:31;;;;;;;30.23;19.08;;;11.30;63.10;;;;;;5032070;28;20092;-91
2022/03/29 06:15:58;;;;;;;30.23;21.40;;;11.40;63.30;;;;;;5022041;28;20042;-90
2022/03/29 06:18:26;;;;;;;33.03;21.80;;;11.30;63.30;;;;;;5002690;28;20141;-90
2022/03/29 06:21:04;;;;;;;30.80;21.90;;;11.10;63.20;;;;;;5013993;28;20484;-90
2022/03/29 06:23:31;;;;;;;33.10;21.00;;;11.20;63.50;;;;;;5011861;28;20046;-90
2022/03/29 06:25:58;;;;;;;32.83;20.30;;;11.40;63.70;;;;;;5027899;28;20050;-90
2022/03/29 06:28:25;;;;;;;32.53;21.98;;;11.20;63.60;;;;;;5028517;28;20046;-90
2022/03/29 06:30:52;;;;;;;35.08;23.58;;;11.30;63.80;;;;;;5028030;28;20050;-90
2022/03/29 06:33:20;;;;;;;33.63;21.85;;;11.30;63.90;;;;;;5023643;28;20045;-90
2022/03/29 06:35:47;;;;;;;31.83;22.05;;;11.60;63.90;;;;;;5010310;28;20054;-91
2022/03/29 06:38:15;;;;;;;32.67;21.75;;;11.70;64.00;;;;;;5028363;28;20042;-89
2022/03/29 06:40:42;;;;;;;31.65;22.73;;;11.70;63.80;;;;;;5011579;28;20046;-90
2022/03/29 06:43:09;;;;;;;33.58;22.17;;;11.60;63.80;;;;;;5002850;28;20049;-90
2022/03/29 06:45:36;;;;;;;34.50;23.23;;;11.90;63.90;;;;;;5032136;28;20100;-93
2022/03/29 06:48:04;;;;;;;32.10;23.75;;;11.90;63.80;;;;;;5031837;28;20046;-91
2022/03/29 06:50:32;;;;;;;31.20;21.92;;;11.80;63.60;;;;;;5031637;28;20053;-92
2022/03/29 06:53:00;;;;;;;33.67;23.30;;;12.10;64.20;;;;;;5022107;28;20042;-90
2022/03/29 06:55:27;;;;;;;28.20;20.77;;;11.90;63.40;;;;;;5027558;28;20607;-92
2022/03/29 06:57:55;;;;;;;34.90;24.65;;;12.10;63.20;;;;;;5028140;28;20136;-91
2022/03/29 07:00:22;;;;;;;28.63;21.42;;;12.30;63.50;;;;;;5028401;28;20045;-90
2022/03/29 07:02:49;;;;;;;34.55;23.63;;;12.20;63.20;;;;;;5029416;28;20659;-90
2022/03/29 07:05:19;;;;;;;35.00;23.65;;;12.40;63.30;;;;;;5030892;28;20056;-90
2022/03/29 07:07:46;;;;;;;33.17;23.17;;;12.20;63.20;;;;;;5027701;28;20046;-90
2022/03/29 07:13:03;;;;;;;38.75;24.10;;;12.40;62.80;;;;;;5006793;28;20077;-90
2022/03/29 07:15:32;;;;;;;34.03;24.65;;;12.40;63.50;;;;;;5024244;28;20054;-91
2022/03/29 07:18:02;;;;;;;37.67;23.77;;;12.50;62.80;;;;;;5023142;28;20038;-91
2022/03/29 07:20:29;;;;;;;35.30;23.58;;;12.50;62.60;;;;;;5012069;28;20041;-92
2022/03/29 07:22:56;;;;;;;35.53;23.80;;;12.60;62.70;;;;;;5043024;28;20123;-90
2022/03/29 07:25:27;;;;;;;34.53;23.73;;;12.80;62.60;;;;;;5027679;28;20133;-89
2022/03/29 07:27:54;;;;;;;34.90;22.90;;;12.60;62.30;;;;;;5028247;28;20177;-91
2022/03/29 07:30:22;;;;;;;33.55;23.02;;;12.90;62.60;;;;;;5027893;28;20081;-91
2022/03/29 07:32:57;;;;;;;33.55;24.50;;;12.90;62.40;;;;;;5002648;28;20052;-91
2022/03/29 07:35:26;;;;;;;37.58;23.67;;;12.80;62.80;;;;;;5013648;28;20050;-91
2022/03/29 07:37:53;;;;;;;34.65;24.83;;;12.90;62.40;;;;;;5012053;28;20514;-90
2022/03/29 07:40:23;;;;;;;32.67;23.38;;;12.90;62.40;;;;;;5046525;28;20088;-90
2022/03/29 07:42:51;;;;;;;38.05;24.92;;;13.00;62.30;;;;;;5017120;28;20065;-90
2022/03/29 07:45:19;;;;;;;39.47;23.85;;;13.30;62.40;;;;;;5027978;28;20046;-90
2022/03/29 07:47:51;;;;;;;36.70;25.63;;;13.20;62.30;;;;;;5013880;28;20050;-91
2022/03/29 07:50:39;;;;;;;34.70;24.08;;;13.40;62.20;;;;;;5011413;28;20496;-90
2022/03/29 07:53:06;;;;;;;34.25;24.98;;;13.30;61.90;;;;;;4995442;28;20260;-90
2022/03/29 07:55:35;;;;;;;35.53;24.08;;;13.60;61.60;;;;;;5010787;28;20050;-90
2022/03/29 07:58:12;;;;;;;36.05;24.27;;;13.60;61.60;;;;;;5011160;28;20046;-90
2022/03/29 08:00:40;;;;;;;33.13;23.63;;;13.50;61.20;;;;;;5015397;28;20517;-92
2022/03/29 08:03:12;;;;;;;33.55;23.48;;;13.50;61.30;;;;;;5030648;28;20115;-91
2022/03/29 08:05:40;;;;;;;;;;;13.80;61.50;;;;;;5050424;28;20076;-90
2022/03/29 08:08:07;;;;;;;34.47;23.73;;;13.60;61.10;;;;;;5027822;28;20015;-90
2022/03/29 08:10:35;;;;;;;33.30;25.63;;;13.60;60.70;;;;;;5023935;28;20054;-91
2022/03/29 08:13:05;;;;;;;37.50;25.02;;;13.60;60.80;;;;;;5031051;28;20045;-90
2022/03/29 08:15:32;;;;;;;34.83;24.05;;;13.70;60.80;;;;;;5027238;28;20156;-90
2022/03/29 08:18:05;;;;;;;34.95;23.88;;;13.70;60.80;;;;;;5006148;28;20145;-90
2022/03/29 08:20:32;;;;;;;36.15;25.65;;;13.70;60.80;;;;;;5028983;28;20575;-91
2022/03/29 08:23:00;;;;;;;36.65;23.90;;;14.00;61.20;;;;;;5014037;28;20048;-90
2022/03/29 08:25:29;;;;;;;35.13;24.88;;;13.90;60.90;;;;;;5028921;28;20057;-91
2022/03/29 08:27:57;;;;;;;38.83;25.85;;;14.00;60.90;;;;;;5024112;28;20050;-91
2022/03/29 08:30:25;;;;;;;36.83;26.55;;;14.00;60.80;;;;;;5031687;28;20078;-90
2022/03/29 08:32:58;;;;;;;35.28;25.75;;;14.00;60.60;;;;;;5030374;28;20060;-92
2022/03/29 08:35:33;;;;;;;36.60;26.08;;;14.10;60.50;;;;;;5019200;28;20563;-90
2022/03/29 08:38:00;;;;;;;35.45;24.45;;;14.30;60.50;;;;;;5009477;28;20046;-91
2022/03/29 08:40:47;;;;;;;34.90;24.70;;;14.20;60.30;;;;;;5029930;28;20089;-91
2022/03/29 08:43:19;;;;;;;42.50;26.30;;;14.30;60.00;;;;;;5030133;28;20038;-90
2022/03/29 08:45:48;;;;;;;34.22;25.23;;;14.40;59.90;;;;;;5029785;28;20074;-90
2022/03/29 08:48:16;;;;;;;38.10;25.33;;;14.40;59.70;;;;;;5014412;28;20049;-91
2022/03/29 08:50:45;;;;;;;36.45;25.50;;;14.50;59.60;;;;;;5029527;28;20058;-90
2022/03/29 08:53:16;;;;;;;39.15;25.92;;;14.80;59.70;;;;;;5045137;28;20038;-91
2022/03/29 08:55:45;;;;;;;38.80;26.45;;;14.60;60.00;;;;;;4996714;28;20692;-91
2022/03/29 08:58:12;;;;;;;42.47;28.27;;;14.70;59.30;;;;;;5013781;28;20542;-91
2022/03/29 09:00:41;;;;;;;43.35;27.88;;;14.60;58.80;;;;;;5030126;28;20052;-90
2022/03/29 09:03:09;;;;;;;33.45;24.77;;;14.60;58.70;;;;;;5009905;28;20056;-91
2022/03/29 09:05:39;;;;;;;38.15;26.83;;;14.80;58.90;;;;;;5033170;28;20499;-90
2022/03/29 09:08:11;;;;;;;38.92;27.83;;;14.60;58.90;;;;;;5028462;28;20484;-91
2022/03/29 09:10:49;;;;;;;43.95;30.00;;;14.50;58.50;;;;;;5037904;28;20045;-91
2022/03/29 09:13:20;;;;;;;45.00;29.52;;;14.50;58.60;;;;;;5017720;28;20047;-91
2022/03/29 09:15:49;;;;;;;48.85;30.75;;;14.50;58.70;;;;;;5025281;28;20038;-91
2022/03/29 09:18:16;;;;;;;55.25;34.58;;;14.50;58.50;;;;;;5012983;28;20042;-91
2022/03/29 09:20:45;;;;;;;50.55;32.53;;;14.70;58.90;;;;;;5029152;28;20052;-91
2022/03/29 09:23:17;;;;;;;50.50;31.90;;;14.70;59.10;;;;;;4984473;28;20050;-90
2022/03/29 09:25:49;;;;;;;56.10;34.45;;;14.70;59.30;;;;;;5009261;28;20100;-90
2022/03/29 09:28:19;;;;;;;56.75;35.92;;;14.50;59.10;;;;;;5030585;28;20437;-91
2022/03/29 09:30:48;;;;;;;57.35;36.60;;;14.50;59.40;;;;;;5014205;28;20519;-90
2022/03/29 09:33:32;;;;;;;61.63;38.03;;;14.60;59.60;;;;;;5016201;28;20042;-90
2022/03/29 09:36:03;;;;;;;58.88;36.03;;;14.70;59.20;;;;;;5012308;28;20133;-91
2022/03/29 09:38:36;;;;;;;62.92;36.65;;;14.80;59.10;;;;;;5029456;28;20136;-90
2022/03/29 09:41:04;;;;;;;66.68;38.15;;;14.80;59.10;;;;;;5012676;28;20046;-90
2022/03/29 09:44:11;;;;;;;71.63;40.42;;;15.00;59.80;;;;;;5004948;28;20192;-91
2022/03/29 09:47:00;;;;;;;63.72;39.05;;;15.10;58.90;;;;;;4993297;28;20047;-91
2022/03/29 09:49:28;;;;;;;67.45;38.63;;;15.20;58.50;;;;;;5029303;28;20073;-89
2022/03/29 09:52:09;;;;;;;75.95;41.38;;;15.30;58.30;;;;;;5029265;28;20054;-93
2022/03/29 09:54:38;;;;;;;70.28;40.50;;;15.40;58.30;;;;;;5019715;28;20046;-90
2022/03/29 09:57:05;;;;;;;79.85;43.50;;;15.50;58.00;;;;;;5010144;28;20054;-90
2022/03/29 09:59:32;;;;;;;83.75;44.97;;;15.60;57.80;;;;;;5033325;28;20047;-91
2022/03/29 10:02:00;;;;;;;81.75;42.95;;;15.70;57.50;;;;;;5029848;28;20046;-92
2022/03/29 10:04:33;;;;;;;83.93;44.83;;;15.80;57.40;;;;;;5016027;28;20042;-90
2022/03/29 10:07:11;;;;;;;92.55;46.47;;;16.00;57.20;;;;;;4993383;28;20058;-90
2022/03/29 10:09:46;;;;;;;99.03;49.33;;;15.90;56.80;;;;;;5040773;28;20125;-91
2022/03/29 10:12:15;;;;;;;96.75;49.90;;;15.90;56.70;;;;;;5025625;28;20058;-91
2022/03/29 10:14:44;;;;;;;92.15;47.58;;;16.00;56.60;;;;;;5031943;28;20050;-91
2022/03/29 10:17:15;;;;;;;103.80;48.42;;;16.00;56.40;;;;;;5003942;28;20080;-92
2022/03/29 10:19:44;;;;;;;108.57;54.05;;;16.00;56.30;;;;;;5010504;28;20043;-90
2022/03/29 10:25:43;;;;;;;99.88;50.03;;;16.00;56.10;;;;;;5003652;28;20046;-91
2022/03/29 10:28:10;;;;;;;103.25;52.72;;;16.20;56.20;;;;;;5013422;28;20042;-91
2022/03/29 10:30:40;;;;;;;95.38;48.65;;;16.00;55.90;;;;;;5028772;28;20078;-92
2022/03/29 10:33:27;;;;;;;97.85;49.00;;;15.90;56.00;;;;;;5016998;28;20495;-91
2022/03/29 10:36:12;;;;;;;94.55;49.95;;;15.90;55.90;;;;;;5013143;28;20658;-89
2022/03/29 10:38:50;;;;;;;92.45;48.60;;;15.90;56.00;;;;;;5013199;28;20054;-91
2022/03/29 10:41:28;;;;;;;96.28;49.20;;;15.90;56.10;;;;;;5027975;28;20052;-90
2022/03/29 10:44:04;;;;;;;94.80;50.95;;;16.10;56.20;;;;;;5029821;28;20041;-90
2022/03/29 10:46:40;;;;;;;104.72;51.75;;;15.90;55.80;;;;;;5020405;28;20108;-91
2022/03/29 10:49:32;;;;;;;98.90;50.20;;;15.90;55.70;;;;;;4993829;28;20050;-90
2022/03/29 10:52:05;;;;;;;101.30;51.50;;;15.90;55.70;;;;;;5010489;28;20062;-91
2022/03/29 10:54:43;;;;;;;107.88;54.53;;;15.90;55.80;;;;;;5009275;28;20157;-90
2022/03/29 10:57:24;;;;;;;113.10;56.97;;;16.00;55.50;;;;;;5036765;28;20049;-91
2022/03/29 11:00:17;;;;;;;105.68;56.58;;;15.80;55.30;;;;;;5021078;28;20058;-93
2022/03/29 11:03:06;;;;;;;108.70;56.13;;;15.80;55.40;;;;;;5029807;28;20042;-91
2022/03/29 11:06:07;;;;;;;104.03;56.60;;;15.70;55.50;;;;;;5004717;28;20066;-91
2022/03/29 11:08:42;;;;;;;109.65;56.13;;;15.70;55.60;;;;;;5028293;28;20038;-91
2022/03/29 11:11:36;;;;;;;111.72;57.40;;;15.60;55.80;;;;;;5053394;28;20451;-90
2022/03/29 11:14:33;;;;;;;129.27;60.75;;;15.60;55.90;;;;;;4997573;28;20109;-90
2022/03/29 11:17:09;;;;;;;120.85;62.83;;;15.60;56.00;;;;;;5030102;28;20050;-91
2022/03/29 11:19:48;;;;;;;127.60;65.38;;;15.60;56.40;;;;;;5037518;28;20049;-92
2022/03/29 11:22:39;;;;;;;123.10;63.70;;;15.60;56.20;;;;;;5052969;28;20052;-89
2022/03/29 11:25:14;;;;;;;135.73;66.18;;;15.60;56.60;;;;;;5030616;28;20084;-90
2022/03/29 11:27:42;;;;;;;122.95;64.88;;;15.60;56.40;;;;;;5023610;28;20113;-91
2022/03/29 11:30:10;;;;;;;117.93;61.97;;;15.60;56.60;;;;;;5036966;28;20049;-90
2022/03/29 11:32:45;;;;;;;126.55;61.88;;;15.70;56.30;;;;;;5027064;28;20046;-91
2022/03/29 11:35:12;;;;;;;127.05;63.67;;;15.80;56.50;;;;;;5030130;28;20046;-91
2022/03/29 11:37:45;;;;;;;128.23;64.15;;;15.60;56.50;;;;;;5033940;28;20132;-90
2022/03/29 11:40:17;;;;;;;114.57;60.72;;;15.90;56.20;;;;;;5017248;28;20058;-90
2022/03/29 11:43:05;;;;;;;108.43;59.33;;;16.00;56.20;;;;;;5032144;28;20268;-90
2022/03/29 11:45:42;;;;;;;116.22;59.83;;;16.10;56.40;;;;;;5036750;28;20307;-92
2022/03/29 11:48:12;;;;;;;114.53;60.10;;;16.20;56.20;;;;;;5053515;28;20053;-92
2022/03/29 11:50:54;;;;;;;120.55;60.63;;;16.30;55.80;;;;;;5035393;28;20053;-91
2022/03/29 11:53:25;;;;;;;129.15;67.47;;;16.40;55.20;;;;;;5013005;28;20058;-91
2022/03/29 11:56:19;;;;;;;119.75;61.83;;;16.80;55.30;;;;;;5012682;28;20054;-91
2022/03/29 11:58:51;;;;;;;117.28;61.92;;;16.70;55.00;;;;;;5013969;28;20077;-90
2022/03/29 12:01:21;;;;;;;120.65;63.28;;;16.70;54.40;;;;;;5006329;28;20050;-92
2022/03/29 12:04:03;;;;;;;117.50;60.30;;;16.70;54.00;;;;;;5013218;28;20117;-92
2022/03/29 12:06:33;;;;;;;114.18;58.85;;;16.70;53.70;;;;;;5000295;28;20145;-91
2022/03/29 12:09:01;;;;;;;119.63;63.13;;;16.70;53.90;;;;;;5016221;28;20085;-91
2022/03/29 12:11:39;;;;;;;124.90;63.33;;;16.70;54.10;;;;;;5018614;28;20067;-92
2022/03/29 12:14:16;;;;;;;122.07;62.00;;;16.70;54.10;;;;;;5035080;28;20572;-90
2022/03/29 12:16:44;;;;;;;107.85;58.17;;;16.70;53.90;;;;;;5035909;28;20046;-91
2022/03/29 12:19:17;;;;;;;109.55;55.95;;;16.70;54.10;;;;;;5003408;28;20141;-91
2022/03/29 12:21:56;;;;;;;105.03;54.03;;;16.80;53.70;;;;;;5012222;28;20046;-93
2022/03/29 12:24:26;;;;;;;104.90;55.75;;;16.80;53.50;;;;;;5012443;28;20050;-91
2022/03/29 12:27:02;;;;;;;99.32;54.78;;;16.80;53.60;;;;;;5016905;28;20050;-90
2022/03/29 12:29:31;;;;;;;96.43;53.20;;;16.80;53.50;;;;;;5009349;28;20531;-91
2022/03/29 12:32:02;;;;;;;92.00;53.42;;;16.80;53.60;;;;;;5039190;28;20053;-91
2022/03/29 12:34:32;;;;;;;100.38;53.88;;;16.90;53.70;;;;;;5007017;28;20054;-92
2022/03/29 12:37:01;;;;;;;87.55;47.92;;;16.90;53.70;;;;;;5031988;28;20526;-92
2022/03/29 12:39:40;;;;;;;85.43;47.72;;;16.90;53.50;;;;;;5011951;28;20046;-93
2022/03/29 12:42:16;;;;;;;90.30;49.15;;;17.00;53.50;;;;;;5027165;28;20045;-91
2022/03/29 12:44:55;;;;;;;88.38;47.53;;;17.00;53.30;;;;;;5035523;28;20050;-91
2022/03/29 12:47:24;;;;;;;79.50;45.28;;;17.10;53.20;;;;;;5035210;28;20042;-90
2022/03/29 12:49:51;;;;;;;79.03;46.22;;;17.20;53.00;;;;;;5006967;28;20136;-92
2022/03/29 12:52:20;;;;;;;74.80;43.40;;;17.30;52.80;;;;;;5034779;28;20054;-93